Time;durP1;ratioP1;P1;durP2;ratioP2;P2;SDS_P1;SDS_P2;PMS_P1;PMS_P2;Temp;Humidity;BMP_temperature;BMP_pressure;BME280_temperature;BME280_humidity;BME280_pressure;Samples;Min_cycle;Max_cycle;Signal;HPM_P1;HPM_P2
2023/10/04 00:00:37;;;;;;;3.20;1.90;;;;;;;15.14;72.63;100619.41;109921;1266;22015;-76
2023/10/04 00:03:28;;;;;;;3.30;1.90;;;;;;;15.14;72.83;100624.36;109992;1266;23027;-75
2023/10/04 00:06:00;;;;;;;4.90;1.90;;;;;;;15.16;72.90;100630.55;109959;1264;21990;-75
2023/10/04 00:08:29;;;;;;;3.60;1.50;;;;;;;15.15;72.75;100635.16;110133;1263;23029;-76
2023/10/04 00:10:57;;;;;;;3.60;1.60;;;;;;;15.17;72.83;100644.34;110107;1263;22218;-76
2023/10/04 00:13:24;;;;;;;3.80;1.80;;;;;;;15.15;72.43;100646.20;109257;1270;23114;-76
2023/10/04 00:15:55;;;;;;;5.00;2.00;;;;;;;15.11;72.30;100644.46;109563;1270;23801;-75
2023/10/04 00:18:22;;;;;;;5.30;2.00;;;;;;;15.08;72.25;100646.56;109363;1265;22198;-76
2023/10/04 00:20:51;;;;;;;3.20;1.50;;;;;;;15.07;72.29;100651.50;110234;1264;21970;-76
2023/10/04 00:23:19;;;;;;;4.90;1.50;;;;;;;15.05;72.20;100661.25;110237;1260;24154;-76
2023/10/04 00:25:46;;;;;;;4.10;2.00;;;;;;;15.02;72.12;100674.54;110548;1260;21965;-77
2023/10/04 00:28:14;;;;;;;6.90;2.10;;;;;;;15.01;72.21;100681.44;110611;1260;21991;-76
2023/10/04 00:30:43;;;;;;;3.90;1.60;;;;;;;15.01;72.28;100688.82;110750;1255;21961;-77
2023/10/04 00:33:12;;;;;;;6.00;2.00;;;;;;;14.98;72.17;100692.42;111003;1254;21977;-76
2023/10/04 00:35:40;;;;;;;6.50;1.70;;;;;;;14.97;72.14;100692.19;111016;1254;22143;-75
2023/10/04 00:38:12;;;;;;;4.10;1.70;;;;;;;14.92;72.02;100706.95;111026;1254;22062;-75
2023/10/04 00:40:41;;;;;;;4.20;1.90;;;;;;;14.90;72.01;100705.48;111005;1254;22394;-76
2023/10/04 00:43:19;;;;;;;3.90;1.40;;;;;;;14.86;71.85;100711.12;111084;1254;21983;-76
2023/10/04 00:45:49;;;;;;;4.20;1.40;;;;;;;14.78;71.85;100712.22;111092;1254;21952;-76
2023/10/04 00:48:23;;;;;;;4.00;1.50;;;;;;;14.74;71.91;100716.09;110741;1256;21960;-76
2023/10/04 00:50:54;;;;;;;4.10;1.70;;;;;;;14.71;71.94;100724.13;110739;1259;21973;-76
2023/10/04 00:53:24;;;;;;;3.30;1.70;;;;;;;14.68;71.95;100731.09;110637;1259;22724;-76
2023/10/04 00:55:57;;;;;;;3.80;1.50;;;;;;;14.63;71.81;100728.55;110830;1260;23072;-76
2023/10/04 00:58:28;;;;;;;5.70;1.50;;;;;;;14.57;71.82;100729.33;110754;1260;21966;-76
2023/10/04 01:00:58;;;;;;;5.40;2.80;;;;;;;14.52;71.83;100734.27;110592;1259;22988;-76
2023/10/04 01:03:32;;;;;;;5.90;1.90;;;;;;;14.48;71.91;100739.58;110647;1260;22700;-76
2023/10/04 01:06:05;;;;;;;5.40;1.80;;;;;;;14.42;71.88;100744.72;110890;1254;21954;-75
2023/10/04 01:08:35;;;;;;;7.60;2.60;;;;;;;14.40;71.89;100748.70;111033;1254;23573;-75
2023/10/04 01:11:05;;;;;;;4.60;1.80;;;;;;;14.36;71.89;100756.89;110612;1259;22593;-75
2023/10/04 01:13:34;;;;;;;4.20;1.80;;;;;;;14.34;71.94;100764.55;110665;1259;22782;-75
2023/10/04 01:16:06;;;;;;;7.40;2.20;;;;;;;14.32;71.84;100762.92;110731;1260;21972;-76
2023/10/04 01:18:39;;;;;;;4.00;1.60;;;;;;;14.27;71.89;100764.86;110683;1259;24852;-75
2023/10/04 01:21:09;;;;;;;4.40;1.90;;;;;;;14.24;71.88;100770.95;110600;1259;23107;-76
2023/10/04 01:23:42;;;;;;;6.30;2.20;;;;;;;14.21;71.94;100770.22;110777;1258;21978;-76
2023/10/04 01:26:25;;;;;;;3.70;1.90;;;;;;;14.19;72.11;100770.33;110602;1259;21963;-77
2023/10/04 01:28:56;;;;;;;8.30;2.70;;;;;;;14.14;72.02;100776.30;110948;1254;23699;-77
2023/10/04 01:31:25;;;;;;;6.20;2.70;;;;;;;14.13;71.99;100781.98;110655;1258;23065;-76
2023/10/04 01:33:54;;;;;;;6.10;2.20;;;;;;;14.12;71.89;100782.71;110738;1258;21987;-75
2023/10/04 01:36:27;;;;;;;7.60;2.20;;;;;;;14.10;71.93;100781.77;110233;1263;23593;-75
2023/10/04 01:38:56;;;;;;;4.50;2.40;;;;;;;14.06;72.02;100782.30;110293;1263;21980;-75
2023/10/04 01:41:30;;;;;;;4.00;2.20;;;;;;;14.02;71.99;100786.48;110020;1267;22023;-77
2023/10/04 01:44:02;;;;;;;4.70;2.00;;;;;;;14.01;72.02;100793.36;109970;1267;23710;-77
2023/10/04 01:46:32;;;;;;;12.90;3.00;;;;;;;14.00;71.99;100794.64;109885;1267;21991;-76
2023/10/04 01:49:01;;;;;;;7.40;2.60;;;;;;;13.99;71.99;100797.83;109279;1271;23043;-76
2023/10/04 01:51:33;;;;;;;7.40;2.60;;;;;;;13.99;71.97;100798.90;109453;1271;22212;-76
2023/10/04 01:54:06;;;;;;;6.60;2.70;;;;;;;13.97;72.00;100802.98;109381;1267;22344;-76
2023/10/04 01:56:37;;;;;;;6.10;2.70;;;;;;;13.93;71.79;100814.91;109911;1255;23036;-76
2023/10/04 01:59:06;;;;;;;8.90;3.20;;;;;;;13.90;71.89;100823.06;110146;1261;21979;-76
2023/10/04 02:01:35;;;;;;;6.60;2.80;;;;;;;13.87;71.94;100824.42;109632;1267;21980;-75
2023/10/04 02:04:06;;;;;;;10.40;3.50;;;;;;;13.84;71.86;100834.54;109115;1273;22448;-77
2023/10/04 02:06:34;;;;;;;11.60;3.60;;;;;;;13.82;71.84;100842.66;109241;1265;21973;-76
2023/10/04 02:09:03;;;;;;;7.20;3.00;;;;;;;13.81;71.85;100843.95;109972;1265;22041;-76
2023/10/04 02:11:36;;;;;;;8.80;3.90;;;;;;;13.78;71.87;100848.08;110305;1265;23747;-77
2023/10/04 02:14:12;;;;;;;8.30;3.00;;;;;;;13.78;71.95;100856.48;110063;1265;23033;-76
2023/10/04 02:16:41;;;;;;;9.20;3.00;;;;;;;13.80;71.94;100864.63;110116;1265;23593;-75
2023/10/04 02:19:09;;;;;;;11.90;3.80;;;;;;;13.83;72.06;100864.66;110068;1259;22290;-76
2023/10/04 02:21:37;;;;;;;6.80;2.90;;;;;;;13.86;71.83;100868.21;110712;1255;23741;-76
2023/10/04 02:24:06;;;;;;;7.90;3.00;;;;;;;13.91;71.94;100869.92;111028;1254;21951;-77
2023/10/04 02:26:35;;;;;;;7.20;3.10;;;;;;;13.96;72.00;100871.27;111088;1253;21967;-75
2023/10/04 02:29:04;;;;;;;11.60;3.50;;;;;;;13.99;71.78;100868.49;111028;1255;23574;-75
2023/10/04 02:32:25;;;;;;;6.80;3.30;;;;;;;14.00;71.54;100866.87;110670;1258;22022;-77
2023/10/04 02:34:54;;;;;;;9.60;4.50;;;;;;;13.97;71.51;100872.98;110296;1264;22233;-76
2023/10/04 02:37:27;;;;;;;8.60;3.00;;;;;;;13.99;71.40;100872.37;109105;1271;21979;-76
2023/10/04 02:39:57;;;;;;;8.50;3.20;;;;;;;14.00;71.24;100872.33;109446;1271;22036;-77
2023/10/04 02:42:27;;;;;;;6.40;3.40;;;;;;;14.00;71.09;100875.81;109562;1270;22071;-76
2023/10/04 02:44:54;;;;;;;9.30;3.40;;;;;;;14.02;70.95;100882.73;109119;1274;21983;-77
2023/10/04 02:47:25;;;;;;;9.90;3.60;;;;;;;14.02;70.77;100885.87;109086;1275;22002;-76
2023/10/04 02:49:54;;;;;;;8.60;2.70;;;;;;;14.02;70.63;100892.01;109026;1273;21986;-75
2023/10/04 02:52:22;;;;;;;7.30;3.00;;;;;;;14.01;70.52;100890.27;109169;1272;22286;-75
2023/10/04 02:54:50;;;;;;;9.80;3.60;;;;;;;14.01;70.58;100889.77;109310;1267;23048;-77
2023/10/04 02:57:19;;;;;;;11.00;3.80;;;;;;;14.00;70.32;100888.25;109981;1267;21968;-77
2023/10/04 02:59:48;;;;;;;10.10;2.80;;;;;;;13.99;70.21;100889.18;109902;1259;23034;-77
2023/10/04 03:02:17;;;;;;;9.80;3.30;;;;;;;13.99;70.20;100891.80;109967;1262;22445;-76
2023/10/04 03:04:46;;;;;;;8.20;2.90;;;;;;;13.99;70.09;100896.86;110462;1261;24545;-77
2023/10/04 03:07:20;;;;;;;9.20;2.90;;;;;;;13.98;69.88;100900.73;110590;1260;21971;-77
2023/10/04 03:09:50;;;;;;;8.70;3.70;;;;;;;13.97;69.86;100900.26;108239;1259;3004286;-77
2023/10/04 03:12:24;;;;;;;9.00;2.80;;;;;;;13.98;69.76;100904.27;110724;1254;23580;-75
2023/10/04 03:14:53;;;;;;;8.40;3.60;;;;;;;13.93;69.51;100902.39;111361;1254;23015;-75
2023/10/04 03:17:21;;;;;;;6.60;3.20;;;;;;;13.93;69.81;100905.69;111051;1254;21963;-76
2023/10/04 03:19:51;;;;;;;8.00;3.50;;;;;;;13.93;69.64;100904.29;111315;1241;21959;-76
2023/10/04 03:22:22;;;;;;;7.80;3.00;;;;;;;13.93;69.43;100905.02;111044;1254;23007;-76
2023/10/04 03:24:54;;;;;;;8.00;2.40;;;;;;;13.92;69.40;100908.19;110741;1259;21964;-76
2023/10/04 03:27:26;;;;;;;8.20;2.80;;;;;;;13.89;69.19;100907.27;110383;1259;22717;-77
2023/10/04 03:29:57;;;;;;;;;;;;;;;13.86;69.07;100912.30;110767;1259;22884;-76
2023/10/04 03:32:28;;;;;;;6.20;3.20;;;;;;;13.77;69.23;100917.23;110476;1259;23689;-75
2023/10/04 03:35:02;;;;;;;8.70;3.30;;;;;;;13.74;69.01;100919.61;110440;1260;22036;-76
2023/10/04 03:37:31;;;;;;;5.80;3.10;;;;;;;13.71;68.77;100922.56;110635;1247;21939;-74
2023/10/04 03:40:00;;;;;;;7.70;3.10;;;;;;;13.69;68.70;100924.04;109972;1266;22036;-76
2023/10/04 03:42:31;;;;;;;6.70;2.90;;;;;;;13.67;68.58;100929.20;109743;1260;21951;-75
2023/10/04 03:44:59;;;;;;;6.20;2.80;;;;;;;13.65;68.58;100928.91;110697;1259;23599;-76
2023/10/04 03:47:27;;;;;;;7.10;3.20;;;;;;;13.63;68.59;100931.09;110777;1257;23590;-76
2023/10/04 03:49:55;;;;;;;9.10;3.30;;;;;;;13.61;68.60;100933.98;110591;1260;21968;-76
2023/10/04 03:52:25;;;;;;;6.80;3.10;;;;;;;13.59;68.66;100935.45;110284;1265;21959;-74
2023/10/04 03:54:54;;;;;;;11.00;3.10;;;;;;;13.56;68.68;100936.96;110127;1264;21984;-75
2023/10/04 03:57:22;;;;;;;5.60;2.60;;;;;;;13.53;68.73;100939.35;110312;1260;22061;-75
2023/10/04 03:59:51;;;;;;;10.70;3.40;;;;;;;13.53;68.82;100944.09;110567;1260;21984;-74
2023/10/04 04:02:19;;;;;;;7.40;3.20;;;;;;;13.53;69.01;100948.99;110661;1260;22007;-75
2023/10/04 04:04:48;;;;;;;14.50;3.30;;;;;;;13.53;69.04;100949.88;110550;1260;21971;-75
2023/10/04 04:07:20;;;;;;;7.60;3.00;;;;;;;13.52;69.08;100946.23;110562;1260;23589;-76
2023/10/04 04:09:49;;;;;;;10.40;3.50;;;;;;;13.50;68.94;100947.02;110619;1255;23483;-76
2023/10/04 04:12:17;;;;;;;7.70;2.80;;;;;;;13.46;68.95;100949.77;111025;1254;22931;-76
2023/10/04 04:14:51;;;;;;;7.70;3.50;;;;;;;13.44;69.01;100949.70;111011;1254;22370;-76
2023/10/04 04:17:23;;;;;;;9.50;3.80;;;;;;;13.40;69.15;100948.47;110975;1254;21954;-76
2023/10/04 04:19:53;;;;;;;7.30;2.70;;;;;;;13.36;69.33;100942.48;110952;1254;22087;-76
2023/10/04 04:22:28;;;;;;;11.00;4.30;;;;;;;13.35;69.48;100953.18;110881;1254;23761;-76
2023/10/04 04:24:59;;;;;;;5.30;3.40;;;;;;;13.33;69.61;100956.27;111138;1254;22743;-75
2023/10/04 04:27:28;;;;;;;8.50;2.90;;;;;;;13.33;69.73;100958.37;110924;1254;23186;-75
2023/10/04 04:30:03;;;;;;;10.10;4.50;;;;;;;13.34;69.99;100960.41;110853;1255;23118;-76
2023/10/04 04:32:58;;;;;;;8.80;3.70;;;;;;;13.39;70.20;100962.13;110509;1259;21977;-76
2023/10/04 04:38:21;;;;;;;10.50;3.50;;;;;;;13.38;69.86;100970.37;110103;1265;23064;-76
2023/10/04 04:40:54;;;;;;;10.00;3.60;;;;;;;13.35;69.84;100977.32;109731;1268;22900;-76
2023/10/04 04:43:36;;;;;;;6.70;3.50;;;;;;;13.34;69.84;100984.35;109283;1274;23640;-76
2023/10/04 04:46:12;;;;;;;9.80;3.70;;;;;;;13.33;69.93;100987.88;108811;1278;22004;-76
2023/10/04 04:48:41;;;;;;;10.30;4.40;;;;;;;13.32;69.87;100992.83;108779;1278;22061;-77
2023/10/04 04:51:12;;;;;;;6.80;3.60;;;;;;;13.32;69.74;100991.59;108930;1275;22012;-77
2023/10/04 04:53:46;;;;;;;12.60;4.60;;;;;;;13.26;69.68;100997.20;109156;1271;21974;-76
2023/10/04 04:56:21;;;;;;;6.00;3.70;;;;;;;13.22;69.73;100995.79;109255;1271;23906;-77
2023/10/04 04:58:52;;;;;;;8.50;4.20;;;;;;;13.20;69.78;101004.25;109174;1272;23670;-77
2023/10/04 05:01:21;;;;;;;7.20;3.80;;;;;;;13.20;69.79;101008.43;109754;1265;22749;-77
2023/10/04 05:03:51;;;;;;;8.10;4.00;;;;;;;13.20;69.89;101009.34;110173;1260;23621;-76
2023/10/04 05:06:22;;;;;;;;;;;;;;;13.20;69.98;101010.04;110571;1260;23691;-77
2023/10/04 05:08:57;;;;;;;9.90;4.10;;;;;;;13.11;70.14;101010.02;110027;1266;23663;-76
2023/10/04 05:11:27;;;;;;;8.60;3.90;;;;;;;13.09;70.15;101014.80;109945;1266;23313;-78
2023/10/04 05:14:02;;;;;;;9.20;4.00;;;;;;;13.10;70.21;101016.35;109939;1266;22419;-76
2023/10/04 05:16:38;;;;;;;9.90;4.50;;;;;;;13.10;70.18;101011.48;110106;1265;22131;-76
2023/10/04 05:19:11;;;;;;;7.70;4.20;;;;;;;13.08;70.16;101015.73;109677;1269;21979;-77
2023/10/04 05:21:40;;;;;;;10.20;4.30;;;;;;;13.06;70.26;101023.64;108999;1275;21998;-77
2023/10/04 05:24:11;;;;;;;9.70;5.10;;;;;;;13.06;70.18;101025.05;108704;1279;23651;-80
2023/10/04 05:26:45;;;;;;;9.20;4.60;;;;;;;13.05;70.24;101026.83;108738;1277;23720;-77
2023/10/04 05:29:20;;;;;;;11.40;5.20;;;;;;;13.02;70.17;101023.96;108870;1277;21992;-76
2023/10/04 05:32:00;;;;;;;9.10;4.20;;;;;;;13.04;70.19;101032.31;108823;1278;23065;-76
2023/10/04 05:34:30;;;;;;;7.70;4.00;;;;;;;13.04;70.24;101031.77;108753;1273;22067;-76
2023/10/04 05:36:58;;;;;;;8.50;4.10;;;;;;;13.00;70.21;101030.34;109070;1271;23731;-75
2023/10/04 05:39:26;;;;;;;8.90;3.90;;;;;;;13.01;70.22;101031.20;108977;1274;22504;-77
2023/10/04 05:41:56;;;;;;;8.90;5.10;;;;;;;13.08;70.23;101045.59;109322;1266;23061;-76
2023/10/04 05:44:27;;;;;;;8.20;4.00;;;;;;;13.12;70.12;101047.39;110025;1266;23618;-77
2023/10/04 05:46:58;;;;;;;9.70;4.00;;;;;;;13.13;70.03;101050.32;110122;1263;21972;-77
2023/10/04 05:49:31;;;;;;;8.40;3.30;;;;;;;13.15;70.01;101048.52;110093;1256;21967;-76
2023/10/04 05:52:10;;;;;;;5.90;3.70;;;;;;;13.17;69.86;101050.53;110569;1259;21971;-77
2023/10/04 05:54:50;;;;;;;10.70;4.20;;;;;;;13.17;69.51;101058.55;110169;1264;22183;-77
2023/10/04 05:57:33;;;;;;;10.80;5.20;;;;;;;13.16;69.51;101061.23;110489;1261;22740;-76
2023/10/04 06:02:55;;;;;;;8.90;4.30;;;;;;;13.20;69.57;101069.09;110554;1260;21966;-76
2023/10/04 06:05:34;;;;;;;9.60;4.60;;;;;;;13.25;69.42;101073.64;110424;1261;21977;-76
2023/10/04 06:08:18;;;;;;;10.00;4.00;;;;;;;13.28;69.28;101078.08;110551;1260;23742;-75
2023/10/04 06:11:03;;;;;;;;;;;;;;;13.33;69.22;101082.98;110566;1260;21955;-77
2023/10/04 06:13:40;;;;;;;9.40;3.60;;;;;;;13.32;69.42;101084.09;110901;1255;23082;-77
2023/10/04 06:16:13;;;;;;;9.10;4.20;;;;;;;13.33;69.15;101089.27;111071;1256;22911;-76
2023/10/04 06:18:52;;;;;;;8.80;3.00;;;;;;;13.35;68.83;101087.98;110935;1254;23725;-77
2023/10/04 06:21:32;;;;;;;10.60;3.20;;;;;;;13.46;68.81;101097.54;110846;1254;23612;-76
2023/10/04 06:24:01;;;;;;;9.20;3.60;;;;;;;13.53;68.59;101101.27;110855;1256;21966;-78
2023/10/04 06:26:37;;;;;;;13.40;3.90;;;;;;;13.59;68.49;101107.70;110858;1253;22037;-77
2023/10/04 06:29:30;;;;;;;12.30;4.00;;;;;;;13.66;68.41;101115.67;110912;1255;22710;-78
2023/10/04 06:32:18;;;;;;;14.70;4.60;;;;;;;13.73;68.18;101117.31;111078;1255;23013;-77
2023/10/04 06:34:47;;;;;;;6.60;3.30;;;;;;;13.80;68.09;101117.90;111006;1254;21954;-77
2023/10/04 06:37:19;;;;;;;11.10;4.30;;;;;;;13.87;67.82;101120.61;110992;1254;23605;-76
2023/10/04 06:39:58;;;;;;;5.60;2.80;;;;;;;13.94;67.69;101124.39;110953;1254;21974;-76
2023/10/04 06:42:34;;;;;;;8.40;3.80;;;;;;;14.01;67.48;101125.82;111065;1254;23434;-76
2023/10/04 06:45:07;;;;;;;6.00;3.60;;;;;;;14.11;67.34;101126.49;111019;1248;21958;-75
2023/10/04 06:47:36;;;;;;;7.40;3.20;;;;;;;14.20;67.27;101125.96;111348;1255;22024;-75
2023/10/04 06:50:07;;;;;;;10.00;3.80;;;;;;;14.31;67.28;101118.52;111082;1250;21957;-77
2023/10/04 06:52:38;;;;;;;14.90;4.30;;;;;;;14.47;67.09;101123.11;110822;1255;21992;-75
2023/10/04 06:55:10;;;;;;;7.60;3.50;;;;;;;14.67;67.00;101128.92;110801;1255;21970;-76
2023/10/04 06:57:39;;;;;;;14.40;3.70;;;;;;;14.92;66.79;101129.61;111029;1255;22433;-81
2023/10/04 07:00:14;;;;;;;7.20;3.70;;;;;;;15.19;66.46;101127.05;111002;1255;23019;-75
2023/10/04 07:02:53;;;;;;;8.60;3.20;;;;;;;15.53;65.86;101132.16;110912;1254;21957;-75
2023/10/04 07:05:31;;;;;;;9.80;4.50;;;;;;;15.82;64.71;101131.70;111008;1254;22603;-75
2023/10/04 07:08:08;;;;;;;8.70;3.40;;;;;;;15.99;63.59;101136.73;111039;1254;22220;-75
2023/10/04 07:10:38;;;;;;;5.60;2.70;;;;;;;15.95;62.56;101134.43;111014;1254;21959;-76
2023/10/04 07:13:07;;;;;;;12.30;3.90;;;;;;;15.92;62.12;101135.80;111234;1254;23016;-75
2023/10/04 07:15:39;;;;;;;7.60;3.40;;;;;;;15.93;61.87;101146.98;111284;1241;21973;-76
2023/10/04 07:18:12;;;;;;;5.90;3.00;;;;;;;15.89;61.77;101152.81;111007;1255;23120;-75
2023/10/04 07:20:48;;;;;;;8.00;3.30;;;;;;;15.83;61.59;101154.16;110990;1256;23020;-76
2023/10/04 07:23:16;;;;;;;8.30;3.40;;;;;;;15.72;61.48;101155.17;110955;1255;23012;-76
2023/10/04 07:26:00;;;;;;;7.70;2.80;;;;;;;15.62;61.73;101153.67;111039;1255;21968;-75
2023/10/04 07:28:28;;;;;;;8.20;3.10;;;;;;;15.57;61.81;101154.45;111236;1255;22377;-75
2023/10/04 07:30:57;;;;;;;9.60;3.30;;;;;;;15.53;61.95;101158.11;111015;1254;22576;-75
2023/10/04 07:33:25;;;;;;;7.90;2.90;;;;;;;15.50;62.09;101151.61;110702;1260;22035;-75
2023/10/04 07:35:55;;;;;;;10.40;3.60;;;;;;;15.46;62.15;101153.19;110525;1260;22814;-78
2023/10/04 07:38:23;;;;;;;12.10;3.90;;;;;;;15.41;62.19;101157.45;110628;1260;23695;-73
2023/10/04 07:40:53;;;;;;;12.90;3.40;;;;;;;15.38;62.25;101165.63;110664;1260;25533;-75
2023/10/04 07:43:22;;;;;;;13.40;3.20;;;;;;;15.35;62.29;101165.77;110692;1260;23727;-75
2023/10/04 07:45:50;;;;;;;6.00;2.70;;;;;;;15.32;62.20;101169.93;110584;1257;22206;-74
2023/10/04 07:48:22;;;;;;;4.90;2.60;;;;;;;15.26;62.11;101174.95;110574;1260;23027;-74
2023/10/04 07:50:50;;;;;;;8.50;3.40;;;;;;;15.18;62.23;101181.27;110642;1254;21975;-73
2023/10/04 07:53:21;;;;;;;7.00;3.20;;;;;;;15.11;62.24;101181.75;111061;1254;21958;-74
2023/10/04 07:55:52;;;;;;;11.00;3.90;;;;;;;15.04;62.50;101180.79;110859;1254;21960;-75
2023/10/04 07:58:20;;;;;;;11.00;3.30;;;;;;;15.00;62.67;101176.58;110984;1255;21957;-74
2023/10/04 08:00:49;;;;;;;7.40;3.40;;;;;;;14.99;62.85;101177.36;111032;1255;22724;-74
2023/10/04 08:03:17;;;;;;;8.70;3.30;;;;;;;15.03;63.09;101173.16;111354;1253;22236;-75
2023/10/04 08:05:47;;;;;;;8.60;3.20;;;;;;;15.08;63.07;101172.22;111348;1253;22691;-77
2023/10/04 08:08:16;;;;;;;9.10;2.90;;;;;;;15.13;63.04;101176.90;111112;1254;22731;-76
2023/10/04 08:10:44;;;;;;;8.30;2.90;;;;;;;15.16;62.79;101174.50;111292;1254;22041;-74
2023/10/04 08:13:13;;;;;;;6.80;3.20;;;;;;;15.19;62.96;101174.54;111084;1254;23758;-76
2023/10/04 08:15:42;;;;;;;10.60;3.30;;;;;;;15.30;63.04;101174.95;111470;1253;21964;-76
2023/10/04 08:18:13;;;;;;;9.10;3.20;;;;;;;15.44;63.17;101175.58;111317;1247;21962;-75
2023/10/04 08:20:46;;;;;;;8.20;2.90;;;;;;;15.69;63.45;101175.49;111036;1253;22415;-75
2023/10/04 08:23:16;;;;;;;5.60;2.70;;;;;;;15.99;62.96;101174.29;111333;1248;21956;-76
2023/10/04 08:25:51;;;;;;;6.50;3.10;;;;;;;16.19;62.04;101167.02;111377;1244;21957;-74
2023/10/04 08:28:41;;;;;;;7.20;3.10;;;;;;;16.29;61.14;101166.70;111315;1254;22099;-77
2023/10/04 08:31:14;;;;;;;11.80;3.00;;;;;;;16.41;61.11;101164.19;111112;1251;23003;-75
2023/10/04 08:33:48;;;;;;;8.80;3.20;;;;;;;16.60;61.08;101164.98;110786;1255;21960;-75
2023/10/04 08:36:18;;;;;;;5.50;2.40;;;;;;;16.86;60.68;101166.17;110729;1255;23727;-76
2023/10/04 08:38:52;;;;;;;11.70;3.30;;;;;;;17.15;60.08;101171.87;110781;1255;21992;-76
2023/10/04 08:41:23;;;;;;;7.00;3.30;;;;;;;17.40;59.29;101165.63;111065;1255;21966;-75
2023/10/04 08:43:55;;;;;;;6.70;3.90;;;;;;;17.56;58.15;101169.58;110941;1254;22673;-75
2023/10/04 08:46:26;;;;;;;6.90;3.30;;;;;;;17.63;57.40;101170.07;110984;1254;21986;-75
2023/10/04 08:48:56;;;;;;;6.90;2.80;;;;;;;17.67;57.04;101169.68;111073;1255;21962;-76
2023/10/04 08:51:40;;;;;;;18.50;3.80;;;;;;;17.66;56.70;101173.42;111125;1243;23014;-77
2023/10/04 08:54:21;;;;;;;8.40;3.20;;;;;;;17.68;56.83;101178.93;111087;1255;21988;-78
2023/10/04 08:57:19;;;;;;;10.80;3.10;;;;;;;17.63;56.40;101167.94;111549;1254;23021;-75
2023/10/04 08:59:51;;;;;;;7.20;2.80;;;;;;;17.69;56.67;101178.49;111004;1255;23022;-77
2023/10/04 09:02:22;;;;;;;9.20;3.00;;;;;;;17.83;56.85;101186.96;111099;1243;23013;-77
2023/10/04 09:05:00;;;;;;;11.30;3.30;;;;;;;17.91;56.33;101186.19;110976;1255;23471;-75
2023/10/04 09:07:32;;;;;;;8.60;3.00;;;;;;;17.74;55.45;101190.96;110796;1258;21969;-74
2023/10/04 09:10:15;;;;;;;9.70;2.90;;;;;;;17.44;55.48;101190.41;110945;1258;21957;-75
2023/10/04 09:12:57;;;;;;;7.30;2.70;;;;;;;17.19;56.01;101194.89;110955;1258;23139;-75
2023/10/04 09:15:29;;;;;;;11.10;3.00;;;;;;;17.06;56.61;101193.96;110740;1257;22160;-75
2023/10/04 09:17:58;;;;;;;11.60;2.90;;;;;;;16.97;56.70;101196.38;110962;1256;23020;-75
2023/10/04 09:20:36;;;;;;;6.40;2.70;;;;;;;16.82;56.66;101195.36;110934;1258;22096;-77
2023/10/04 09:23:23;;;;;;;11.60;3.90;;;;;;;16.71;57.20;101194.30;110917;1258;23576;-76
2023/10/04 09:26:01;;;;;;;13.00;3.20;;;;;;;16.64;57.50;101196.77;110838;1258;22236;-76
2023/10/04 09:28:46;;;;;;;7.10;2.30;;;;;;;16.60;57.61;101199.06;110941;1258;23606;-76
2023/10/04 09:31:26;;;;;;;5.20;2.80;;;;;;;16.52;57.49;101197.20;110969;1258;23771;-76
2023/10/04 09:34:15;;;;;;;7.20;2.70;;;;;;;16.37;57.70;101192.83;110867;1257;22429;-76
2023/10/04 09:36:47;;;;;;;8.60;3.20;;;;;;;16.39;58.25;101205.01;110985;1258;21961;-75
2023/10/04 09:39:31;;;;;;;12.90;3.10;;;;;;;16.38;58.31;101206.28;111285;1254;23775;-75
2023/10/04 09:42:04;;;;;;;6.00;2.90;;;;;;;16.36;58.41;101206.58;111136;1255;22431;-78
2023/10/04 09:45:09;;;;;;;7.20;2.80;;;;;;;16.31;58.27;101207.51;111246;1255;21964;-76
2023/10/04 09:47:55;;;;;;;12.00;3.60;;;;;;;16.26;58.42;101208.99;110028;1266;22722;-77
2023/10/04 09:50:27;;;;;;;8.60;3.30;;;;;;;16.26;58.48;101214.42;110298;1266;22001;-76
2023/10/04 09:53:08;;;;;;;6.30;2.80;;;;;;;16.25;58.54;101216.40;109973;1263;21975;-77
2023/10/04 09:55:49;;;;;;;6.10;2.80;;;;;;;16.21;58.62;101214.85;109950;1266;21982;-76
2023/10/04 09:59:11;;;;;;;8.40;3.30;;;;;;;16.18;58.83;101211.15;109935;1266;22240;-76
2023/10/04 10:01:23;;;;;;;9.00;3.80;;;;;;;16.16;59.16;101210.33;110092;1266;21958;-77
2023/10/04 10:04:21;;;;;;;5.90;3.00;;;;;;;16.14;59.06;101211.83;110307;1266;23068;-76
2023/10/04 10:07:21;;;;;;;;;;;;;;;;;;;;;
2023/10/04 10:10:18;;;;;;;7.50;3.30;;;;;;;16.19;59.21;101218.10;110692;1260;21979;-76
2023/10/04 10:12:57;;;;;;;7.90;3.50;;;;;;;16.21;59.14;101221.71;110219;1266;21971;-75
2023/10/04 10:15:43;;;;;;;7.00;3.10;;;;;;;16.19;59.02;101213.73;110073;1266;21991;-77
2023/10/04 10:18:11;;;;;;;6.60;2.60;;;;;;;16.22;58.86;101221.81;110312;1266;23721;-76
2023/10/04 10:20:42;;;;;;;6.20;2.60;;;;;;;16.20;58.74;101216.48;110069;1266;23194;-76
2023/10/04 10:23:13;;;;;;;7.20;3.70;;;;;;;16.21;58.64;101219.73;110234;1266;23644;-77
2023/10/04 10:26:19;;;;;;;9.10;3.20;;;;;;;16.23;58.75;101218.98;110766;1262;21986;-74
2023/10/04 10:29:05;;;;;;;9.00;3.90;;;;;;;16.23;58.87;101215.27;110608;1262;21978;-75
2023/10/04 10:31:57;;;;;;;;;;;;;;;16.25;58.92;101216.38;110371;1262;22049;-75
2023/10/04 10:34:27;;;;;;;11.50;3.10;;;;;;;16.22;58.95;101217.98;110402;1262;21996;-76
2023/10/04 10:37:17;;;;;;;6.40;2.90;;;;;;;16.26;58.80;101220.61;110598;1262;23715;-75
2023/10/04 10:39:56;;;;;;;10.50;3.70;;;;;;;16.31;58.78;101213.65;110563;1262;22000;-75
2023/10/04 10:42:26;;;;;;;6.00;2.80;;;;;;;16.37;58.53;101214.06;110154;1265;22735;-75
2023/10/04 10:45:27;;;;;;;8.60;2.80;;;;;;;16.40;58.41;101211.14;110242;1265;23457;-75
2023/10/04 10:47:56;;;;;;;8.90;2.70;;;;;;;16.40;58.48;101207.96;110415;1265;21958;-75
2023/10/04 10:50:41;;;;;;;7.80;2.90;;;;;;;16.46;58.63;101204.50;109885;1263;23580;-74
2023/10/04 10:53:15;;;;;;;8.60;3.40;;;;;;;16.55;58.43;101201.80;110190;1263;21991;-73
2023/10/04 10:55:49;;;;;;;6.40;3.40;;;;;;;16.61;58.46;101203.06;110497;1263;22208;-74
2023/10/04 10:58:24;;;;;;;15.70;4.00;;;;;;;16.73;58.49;101200.86;110328;1263;22017;-75
2023/10/04 11:00:56;;;;;;;9.60;3.30;;;;;;;16.84;58.17;101198.63;110642;1260;21966;-76
2023/10/04 11:03:25;;;;;;;12.20;4.40;;;;;;;16.86;57.96;101191.12;110631;1260;22939;-75
2023/10/04 11:05:55;;;;;;;8.60;2.70;;;;;;;16.96;57.89;101190.80;110692;1260;23619;-79
2023/10/04 11:08:34;;;;;;;7.20;2.90;;;;;;;16.96;57.12;101194.31;111055;1255;22811;-74
2023/10/04 11:11:05;;;;;;;7.20;2.90;;;;;;;16.87;57.06;101192.30;111288;1255;23687;-72
2023/10/04 11:13:44;;;;;;;7.90;2.60;;;;;;;16.85;57.31;101194.73;110842;1255;21959;-72
2023/10/04 11:16:15;;;;;;;8.50;3.20;;;;;;;16.83;57.14;101194.95;110997;1255;21995;-74
2023/10/04 11:18:49;;;;;;;8.10;3.00;;;;;;;16.78;57.13;101192.92;110661;1260;21965;-74
2023/10/04 11:21:36;;;;;;;7.10;2.70;;;;;;;16.76;57.14;101198.45;110563;1259;21970;-73
2023/10/04 11:24:40;;;;;;;12.90;3.00;;;;;;;16.69;57.01;101203.02;110592;1260;22025;-76
2023/10/04 11:27:40;;;;;;;7.50;3.50;;;;;;;16.62;57.06;101196.73;109706;1266;22274;-73
2023/10/04 11:30:50;;;;;;;6.80;3.00;;;;;;;16.60;57.24;101198.92;109806;1266;21967;-74
2023/10/04 11:33:37;;;;;;;6.90;3.00;;;;;;;16.54;57.18;101198.66;110014;1266;21978;-73
2023/10/04 11:36:27;;;;;;;6.20;2.90;;;;;;;16.51;57.36;101197.23;109884;1262;23847;-74
2023/10/04 11:39:33;;;;;;;9.70;3.20;;;;;;;16.40;57.41;101191.61;109849;1267;21983;-73
2023/10/04 11:42:32;;;;;;;8.60;3.70;;;;;;;16.46;57.71;101201.01;109074;1274;23028;-73
2023/10/04 11:45:33;;;;;;;5.10;2.40;;;;;;;16.47;57.59;101201.66;109479;1268;22672;-73
2023/10/04 11:48:14;;;;;;;;;;;;;;;16.42;57.83;101190.86;109721;1268;22328;-74
2023/10/04 11:51:21;;;;;;;6.60;2.70;;;;;;;16.35;58.01;101194.48;109898;1268;21980;-74
2023/10/04 11:54:53;;;;;;;5.90;3.00;;;;;;;16.35;57.82;101202.61;109818;1268;21977;-75
2023/10/04 11:57:50;;;;;;;8.70;3.10;;;;;;;16.35;58.12;101200.85;109907;1262;21974;-74
2023/10/04 12:01:15;;;;;;;;;;;;;;;;;;;;;